createdAt,value
2019-01-02T00:00:13.011Z,0.00
2019-01-02T00:01:13.002Z,0.00
2019-01-02T00:02:13.024Z,0.00
2019-01-02T00:03:12.979Z,0.00
2019-01-02T00:04:12.975Z,0.00
2019-01-02T00:05:12.952Z,0.00
2019-01-02T00:06:12.939Z,0.00
2019-01-02T00:07:12.931Z,0.00
2019-01-02T00:08:12.924Z,0.00
2019-01-02T00:09:12.905Z,0.00
2019-01-02T00:10:12.895Z,0.00
2019-01-02T00:11:12.889Z,0.00
2019-01-02T00:12:12.873Z,0.00
2019-01-02T00:13:12.867Z,0.00
2019-01-02T00:14:12.853Z,0.00
2019-01-02T00:15:12.846Z,0.00
2019-01-02T00:16:12.830Z,0.00
2019-01-02T00:17:12.819Z,0.00
2019-01-02T00:18:12.807Z,0.00
2019-01-02T00:19:12.797Z,0.00
2019-01-02T00:20:12.787Z,0.00
2019-01-02T00:21:12.778Z,0.00
2019-01-02T00:22:12.764Z,0.00
2019-01-02T00:23:12.756Z,0.00
2019-01-02T00:24:12.742Z,0.00
2019-01-02T00:25:12.731Z,0.00
2019-01-02T00:26:12.726Z,0.00
2019-01-02T00:27:12.709Z,0.00
2019-01-02T00:28:12.699Z,0.00
2019-01-02T00:29:12.688Z,0.00
2019-01-02T00:30:12.676Z,0.00
2019-01-02T00:31:12.665Z,0.00
2019-01-02T00:32:12.657Z,0.00
2019-01-02T00:33:12.642Z,0.00
2019-01-02T00:34:12.630Z,0.00
2019-01-02T00:35:12.618Z,0.00
2019-01-02T00:36:12.612Z,0.00
2019-01-02T00:37:12.601Z,0.00
2019-01-02T00:38:12.592Z,0.00
2019-01-02T00:39:12.584Z,0.00
2019-01-02T00:40:12.578Z,0.00
2019-01-02T00:41:12.553Z,0.00
2019-01-02T00:42:12.542Z,0.00
2019-01-02T00:43:12.531Z,0.00
2019-01-02T00:44:12.521Z,0.00
2019-01-02T00:45:12.508Z,0.00
2019-01-02T00:46:12.497Z,0.00
2019-01-02T00:47:12.487Z,0.00
2019-01-02T00:48:12.474Z,0.00
2019-01-02T00:49:12.470Z,0.00
2019-01-02T00:50:12.456Z,0.00
2019-01-02T00:51:12.442Z,0.00
2019-01-02T00:52:12.430Z,0.00
2019-01-02T00:53:12.427Z,0.00
2019-01-02T00:54:12.415Z,0.00
2019-01-02T00:55:12.400Z,0.00
2019-01-02T00:56:12.387Z,0.00
2019-01-02T00:57:12.376Z,0.00
2019-01-02T00:58:12.365Z,0.00
2019-01-02T00:59:12.355Z,0.00
2019-01-02T01:00:12.348Z,0.00
2019-01-02T01:01:12.337Z,0.00
2019-01-02T01:02:12.326Z,0.00
2019-01-02T01:03:12.315Z,0.00
2019-01-02T01:04:12.299Z,0.00
2019-01-02T01:05:12.286Z,0.00
2019-01-02T01:06:12.277Z,0.00
2019-01-02T01:07:12.265Z,0.00
2019-01-02T01:08:12.253Z,0.00
2019-01-02T01:09:12.247Z,0.00
2019-01-02T01:10:12.232Z,0.00
2019-01-02T01:11:12.220Z,0.00
2019-01-02T01:12:12.209Z,0.00
2019-01-02T01:13:12.198Z,0.00
2019-01-02T01:14:12.193Z,0.00
2019-01-02T01:15:12.177Z,0.00
2019-01-02T01:16:12.170Z,0.00
2019-01-02T01:17:12.153Z,0.00
2019-01-02T01:18:12.148Z,0.00
2019-01-02T01:19:12.129Z,0.00
2019-01-02T01:20:12.122Z,0.00
2019-01-02T01:21:12.111Z,0.00
2019-01-02T01:22:12.098Z,0.00
2019-01-02T01:23:12.086Z,0.00
2019-01-02T01:24:12.073Z,0.00
2019-01-02T01:25:12.061Z,0.00
2019-01-02T01:26:12.050Z,0.00
2019-01-02T01:27:12.041Z,0.00
2019-01-02T01:28:12.028Z,0.00
2019-01-02T01:29:12.018Z,0.00
2019-01-02T01:30:12.011Z,0.00
2019-01-02T01:31:11.995Z,0.00
2019-01-02T01:32:11.983Z,0.00
2019-01-02T01:33:11.978Z,0.00
2019-01-02T01:34:11.965Z,0.00
2019-01-02T01:35:11.950Z,0.00
2019-01-02T01:36:11.938Z,0.00
2019-01-02T01:37:11.928Z,0.00
2019-01-02T01:38:11.917Z,0.00
2019-01-02T01:39:11.904Z,0.00
2019-01-02T01:40:11.893Z,0.00
2019-01-02T01:41:11.889Z,0.00
2019-01-02T01:42:11.870Z,0.00
2019-01-02T01:43:11.859Z,0.00
2019-01-02T01:44:11.849Z,0.00
2019-01-02T01:45:11.839Z,0.00
2019-01-02T01:46:11.829Z,0.00
2019-01-02T01:47:11.814Z,0.00
2019-01-02T01:48:11.809Z,0.00
2019-01-02T01:49:11.791Z,0.00
2019-01-02T01:50:11.780Z,0.00
2019-01-02T01:51:11.770Z,0.00
2019-01-02T01:52:11.762Z,0.00
2019-01-02T01:53:11.746Z,0.00
2019-01-02T01:54:11.738Z,0.00
2019-01-02T01:55:11.724Z,0.00
2019-01-02T01:56:11.719Z,0.00
2019-01-02T01:57:11.702Z,0.00
2019-01-02T01:58:11.692Z,0.00
2019-01-02T01:59:11.679Z,0.00
2019-01-02T02:00:11.668Z,0.00
2019-01-02T02:01:11.657Z,0.00
2019-01-02T02:02:11.644Z,0.00
2019-01-02T02:03:11.641Z,0.00
2019-01-02T02:04:11.623Z,0.00
2019-01-02T02:05:11.614Z,0.00
2019-01-02T02:06:11.603Z,0.00
2019-01-02T02:07:11.593Z,0.00
2019-01-02T02:08:11.576Z,0.00
2019-01-02T02:09:11.569Z,0.00
2019-01-02T02:10:11.563Z,0.00
2019-01-02T02:11:11.546Z,0.00
2019-01-02T02:12:11.535Z,0.00
2019-01-02T02:13:11.522Z,0.00
2019-01-02T02:14:11.510Z,0.00
2019-01-02T02:15:11.506Z,0.00
2019-01-02T02:16:11.488Z,0.00
2019-01-02T02:17:11.482Z,0.00
2019-01-02T02:18:11.463Z,0.00
2019-01-02T02:19:11.456Z,0.00
2019-01-02T02:20:11.447Z,0.00
2019-01-02T02:21:11.438Z,0.00
2019-01-02T02:22:11.419Z,0.00
2019-01-02T02:23:11.408Z,0.00
2019-01-02T02:24:11.396Z,0.00
2019-01-02T02:25:11.393Z,0.00
2019-01-02T02:26:11.374Z,0.00
2019-01-02T02:27:11.361Z,0.00
2019-01-02T02:28:11.357Z,0.00
2019-01-02T02:29:11.338Z,0.00
2019-01-02T02:30:11.329Z,0.00
2019-01-02T02:31:11.316Z,0.00
2019-01-02T02:32:11.306Z,0.00
2019-01-02T02:33:11.295Z,0.00
2019-01-02T02:34:11.285Z,0.00
2019-01-02T02:35:11.272Z,0.00
2019-01-02T02:36:11.259Z,0.00
2019-01-02T02:37:11.254Z,0.00
2019-01-02T02:38:11.239Z,0.00
2019-01-02T02:39:11.227Z,0.00
2019-01-02T02:40:11.216Z,0.00
2019-01-02T02:41:11.207Z,0.00
2019-01-02T02:42:11.193Z,0.00
2019-01-02T02:43:11.181Z,0.00
2019-01-02T02:44:11.176Z,0.00
2019-01-02T02:45:11.159Z,0.00
2019-01-02T02:46:11.146Z,0.00
2019-01-02T02:47:11.139Z,0.00
2019-01-02T02:48:11.124Z,0.00
2019-01-02T02:49:11.115Z,0.00
2019-01-02T02:50:11.107Z,0.00
2019-01-02T02:51:11.093Z,0.00
2019-01-02T02:52:11.081Z,0.00
2019-01-02T02:53:11.070Z,0.00
2019-01-02T02:54:11.056Z,0.00
2019-01-02T02:55:11.047Z,0.00
2019-01-02T02:56:11.034Z,0.00
2019-01-02T02:57:11.023Z,0.00
2019-01-02T02:58:11.011Z,0.00
2019-01-02T02:59:11.004Z,0.00
2019-01-02T03:00:11.022Z,0.00
2019-01-02T03:01:10.980Z,0.00
2019-01-02T03:02:10.974Z,0.00
2019-01-02T03:03:10.954Z,0.00
2019-01-02T03:04:10.943Z,0.00
2019-01-02T03:05:10.939Z,0.00
2019-01-02T03:06:10.926Z,0.00
2019-01-02T03:07:10.910Z,0.00
2019-01-02T03:08:10.899Z,0.00
2019-01-02T03:09:10.887Z,0.00
2019-01-02T03:10:10.875Z,0.00
2019-01-02T03:11:10.872Z,0.00
2019-01-02T03:12:10.853Z,0.00
2019-01-02T03:13:10.850Z,0.00
2019-01-02T03:14:10.833Z,0.00
2019-01-02T03:15:10.817Z,0.00
2019-01-02T03:16:10.812Z,0.00
2019-01-02T03:17:10.799Z,0.00
2019-01-02T03:18:10.787Z,0.00
2019-01-02T03:19:10.773Z,0.00
2019-01-02T03:20:10.763Z,0.00
2019-01-02T03:21:10.755Z,0.00
2019-01-02T03:22:10.740Z,0.00
2019-01-02T03:23:10.732Z,0.00
2019-01-02T03:24:10.721Z,0.00
2019-01-02T03:25:10.710Z,0.00
2019-01-02T03:26:10.700Z,0.00
2019-01-02T03:27:10.684Z,0.00
2019-01-02T03:28:10.673Z,0.00
2019-01-02T03:29:10.763Z,0.00
2019-01-02T03:30:10.680Z,0.00
2019-01-02T03:31:10.640Z,0.00
2019-01-02T03:32:10.630Z,0.00
2019-01-02T03:33:10.616Z,0.00
2019-01-02T03:34:10.605Z,0.00
2019-01-02T03:35:10.592Z,0.00
2019-01-02T03:36:10.581Z,0.00
2019-01-02T03:37:10.571Z,0.00
2019-01-02T03:38:10.563Z,0.00
2019-01-02T03:39:10.552Z,0.00
2019-01-02T03:40:10.538Z,0.00
2019-01-02T03:41:10.525Z,0.00
2019-01-02T03:42:10.516Z,0.00
2019-01-02T03:43:10.504Z,0.00
2019-01-02T03:44:10.496Z,0.00
2019-01-02T03:45:10.479Z,0.00
2019-01-02T03:46:10.468Z,0.00
2019-01-02T03:47:10.458Z,0.00
2019-01-02T03:48:10.448Z,0.00
2019-01-02T03:49:10.437Z,0.00
2019-01-02T03:50:10.425Z,0.00
2019-01-02T03:51:10.413Z,0.00
2019-01-02T03:52:10.402Z,0.00
2019-01-02T03:53:10.396Z,0.00
2019-01-02T03:54:10.378Z,0.00
2019-01-02T03:55:10.366Z,0.00
2019-01-02T03:56:10.360Z,0.00
2019-01-02T03:57:10.344Z,0.00
2019-01-02T03:58:10.336Z,0.00
2019-01-02T03:59:10.322Z,0.00
2019-01-02T04:00:10.309Z,0.00
2019-01-02T04:01:10.302Z,0.00
2019-01-02T04:02:10.291Z,0.00
2019-01-02T04:03:10.277Z,0.00
2019-01-02T04:04:10.264Z,0.00
2019-01-02T04:05:10.255Z,0.00
2019-01-02T04:06:10.241Z,0.00
2019-01-02T04:07:10.232Z,0.00
2019-01-02T04:08:10.225Z,0.00
2019-01-02T04:09:10.216Z,0.00
2019-01-02T04:10:10.197Z,0.00
2019-01-02T04:11:10.185Z,0.00
2019-01-02T04:12:10.174Z,0.00
2019-01-02T04:13:10.165Z,0.00
2019-01-02T04:14:10.158Z,0.00
2019-01-02T04:15:10.148Z,0.00
2019-01-02T04:16:10.134Z,0.00
2019-01-02T04:17:10.122Z,0.00
2019-01-02T04:18:10.108Z,0.00
2019-01-02T04:19:10.096Z,0.00
2019-01-02T04:20:10.089Z,0.00
2019-01-02T04:21:10.075Z,0.00
2019-01-02T04:22:10.064Z,0.00
2019-01-02T04:23:10.050Z,0.00
2019-01-02T04:24:10.041Z,0.00
2019-01-02T04:25:10.030Z,0.00
2019-01-02T04:26:10.015Z,0.00
2019-01-02T04:27:10.005Z,0.00
2019-01-02T04:28:09.997Z,0.00
2019-01-02T04:29:09.983Z,0.00
2019-01-02T04:30:09.972Z,0.00
2019-01-02T04:31:09.966Z,0.00
2019-01-02T04:32:10.448Z,0.00
2019-01-02T04:33:09.941Z,0.00
2019-01-02T04:34:09.926Z,0.00
2019-01-02T04:35:09.916Z,0.00
2019-01-02T04:36:09.903Z,0.00
2019-01-02T04:37:09.894Z,0.00
2019-01-02T04:38:09.882Z,0.00
2019-01-02T04:39:09.870Z,0.00
2019-01-02T04:40:10.496Z,0.00
2019-01-02T04:41:09.896Z,0.00
2019-01-02T04:42:09.836Z,0.00
2019-01-02T04:44:09.817Z,0.00
2019-01-02T04:45:09.801Z,0.00
2019-01-02T04:46:09.790Z,0.00
2019-01-02T04:47:09.780Z,0.00
2019-01-02T04:48:09.770Z,0.00
2019-01-02T04:49:09.758Z,0.00
2019-01-02T04:50:09.746Z,0.00
2019-01-02T04:51:09.736Z,0.00
2019-01-02T04:52:09.724Z,0.00
2019-01-02T04:53:09.714Z,0.00
2019-01-02T04:54:09.701Z,0.00
2019-01-02T04:55:09.697Z,0.00
2019-01-02T04:56:09.677Z,0.00
2019-01-02T04:57:09.670Z,0.00
2019-01-02T04:58:09.659Z,0.00
2019-01-02T04:59:09.647Z,0.00
2019-01-02T05:00:09.633Z,0.00
2019-01-02T05:01:09.620Z,0.00
2019-01-02T05:02:09.612Z,0.00
2019-01-02T05:03:09.604Z,0.00
2019-01-02T05:04:09.587Z,0.00
2019-01-02T05:06:09.583Z,0.00
2019-01-02T05:07:09.586Z,0.00
2019-01-02T05:08:09.589Z,0.00
2019-01-02T05:09:09.537Z,0.00
2019-01-02T05:10:09.536Z,0.00
2019-01-02T05:11:09.536Z,0.00
2019-01-02T05:12:09.540Z,0.00
2019-01-02T05:14:09.479Z,0.00
2019-01-02T05:15:09.469Z,0.00
2019-01-02T05:16:09.452Z,0.00
2019-01-02T05:17:09.442Z,0.00
2019-01-02T05:18:09.430Z,0.00
2019-01-02T05:19:09.424Z,0.00
2019-01-02T05:20:09.413Z,0.00
2019-01-02T05:21:09.395Z,0.00
2019-01-02T05:22:09.384Z,0.00
2019-01-02T05:23:09.374Z,0.00
2019-01-02T05:24:09.360Z,0.00
2019-01-02T05:25:09.357Z,0.00
2019-01-02T05:26:09.339Z,0.00
2019-01-02T05:27:09.327Z,0.00
2019-01-02T05:28:09.318Z,0.00
2019-01-02T05:29:09.309Z,0.00
2019-01-02T05:30:09.297Z,0.00
2019-01-02T05:31:09.283Z,0.00
2019-01-02T05:32:09.272Z,0.00
2019-01-02T05:33:09.269Z,0.00
2019-01-02T05:34:09.251Z,0.00
2019-01-02T05:35:09.239Z,0.00
2019-01-02T05:36:09.230Z,0.00
2019-01-02T05:37:09.216Z,0.00
2019-01-02T05:38:09.202Z,0.00
2019-01-02T05:39:09.200Z,0.00
2019-01-02T05:40:09.182Z,0.00
2019-01-02T05:41:09.171Z,0.00
2019-01-02T05:42:09.158Z,0.00
2019-01-02T05:43:09.151Z,0.00
2019-01-02T05:44:09.136Z,0.00
2019-01-02T05:45:09.126Z,0.00
2019-01-02T05:46:09.111Z,0.00
2019-01-02T05:47:09.107Z,0.00
2019-01-02T05:48:09.091Z,0.00
2019-01-02T05:49:09.081Z,0.00
2019-01-02T05:50:09.067Z,0.00
2019-01-02T05:51:09.056Z,0.00
2019-01-02T05:52:09.045Z,0.00
2019-01-02T05:53:09.036Z,0.00
2019-01-02T05:55:09.009Z,0.00
2019-01-02T05:56:09.016Z,0.00
2019-01-02T05:57:08.987Z,0.00
2019-01-02T05:58:08.977Z,0.00
2019-01-02T05:59:08.966Z,0.00
2019-01-02T06:00:08.953Z,0.00
2019-01-02T06:01:08.948Z,0.00
2019-01-02T06:02:08.937Z,0.00
2019-01-02T06:03:08.926Z,0.00
2019-01-02T06:04:08.912Z,0.00
2019-01-02T06:05:08.901Z,0.00
2019-01-02T06:06:08.885Z,0.00
2019-01-02T06:07:08.876Z,0.00
2019-01-02T06:08:08.864Z,0.00
2019-01-02T06:09:08.853Z,0.00
2019-01-02T06:10:08.841Z,0.00
2019-01-02T06:11:08.829Z,0.00
2019-01-02T06:12:08.818Z,0.00
2019-01-02T06:13:08.811Z,0.00
2019-01-02T06:14:08.794Z,0.00
2019-01-02T06:15:08.789Z,0.00
2019-01-02T06:16:08.772Z,0.00
2019-01-02T06:18:08.750Z,0.00
2019-01-02T06:19:08.738Z,0.00
2019-01-02T06:20:08.732Z,0.00
2019-01-02T06:21:08.717Z,0.00
2019-01-02T06:22:08.704Z,0.00
2019-01-02T06:23:08.701Z,0.00
2019-01-02T06:24:08.682Z,0.00
2019-01-02T06:25:08.687Z,0.00
2019-01-02T06:26:08.661Z,0.00
2019-01-02T06:27:08.651Z,0.00
2019-01-02T06:28:08.645Z,0.00
2019-01-02T06:29:08.630Z,0.00
2019-01-02T06:30:08.616Z,0.00
2019-01-02T06:31:08.605Z,0.00
2019-01-02T06:32:08.599Z,0.00
2019-01-02T06:33:08.581Z,0.00
2019-01-02T06:34:08.570Z,0.00
2019-01-02T06:35:08.562Z,0.00
2019-01-02T06:36:08.552Z,0.00
2019-01-02T06:37:08.536Z,0.00
2019-01-02T06:38:08.527Z,0.00
2019-01-02T06:39:08.514Z,0.00
2019-01-02T06:40:08.504Z,4.00
2019-01-02T06:41:08.492Z,4.00
2019-01-02T06:42:08.482Z,4.00
2019-01-02T06:43:08.476Z,4.00
2019-01-02T06:44:08.476Z,4.00
2019-01-02T06:45:08.449Z,4.00
2019-01-02T06:46:08.440Z,0.00
2019-01-02T06:47:08.429Z,4.00
2019-01-02T06:48:08.416Z,4.00
2019-01-02T06:49:08.403Z,4.00
2019-01-02T06:50:08.393Z,8.00
2019-01-02T06:51:08.383Z,8.00
2019-01-02T06:52:08.370Z,12.00
2019-01-02T06:53:08.366Z,12.00
2019-01-02T06:54:08.348Z,12.00
2019-01-02T06:55:08.338Z,16.00
2019-01-02T06:56:08.327Z,12.00
2019-01-02T06:57:08.314Z,16.00
2019-01-02T06:58:08.304Z,24.00
2019-01-02T06:59:08.291Z,28.00
2019-01-02T07:00:08.280Z,36.00
2019-01-02T07:01:08.267Z,40.00
2019-01-02T07:02:08.257Z,44.00
2019-01-02T07:03:08.246Z,44.00
2019-01-02T07:04:08.242Z,44.00
2019-01-02T07:05:08.224Z,48.00
2019-01-02T07:06:08.215Z,56.00
2019-01-02T07:07:08.232Z,60.00
2019-01-02T07:08:08.191Z,72.00
2019-01-02T07:09:08.213Z,80.00
2019-01-02T07:10:08.168Z,84.00
2019-01-02T07:11:08.155Z,88.00
2019-01-02T07:12:08.145Z,100.00
2019-01-02T07:13:08.132Z,108.00
2019-01-02T07:14:08.124Z,116.00
2019-01-02T07:15:08.109Z,120.00
2019-01-02T07:16:08.099Z,128.00
2019-01-02T07:17:08.093Z,136.00
2019-01-02T07:18:08.083Z,136.00
2019-01-02T07:19:08.064Z,136.00
2019-01-02T07:20:08.059Z,136.00
2019-01-02T07:21:08.043Z,140.00
2019-01-02T07:22:08.031Z,140.00
2019-01-02T07:23:08.021Z,156.00
2019-01-02T07:24:08.008Z,172.00
2019-01-02T07:25:08.000Z,184.00
2019-01-02T07:26:08.026Z,192.00
2019-01-02T07:27:07.976Z,208.00
2019-01-02T07:28:07.964Z,224.00
2019-01-02T07:29:07.961Z,244.00
2019-01-02T07:30:07.942Z,244.00
2019-01-02T07:31:07.933Z,256.00
2019-01-02T07:32:07.923Z,276.00
2019-01-02T07:33:07.910Z,292.00
2019-01-02T07:34:07.898Z,288.00
2019-01-02T07:35:07.887Z,276.00
2019-01-02T07:36:07.876Z,276.00
2019-01-02T07:37:07.864Z,288.00
2019-01-02T07:38:07.853Z,308.00
2019-01-02T07:39:07.885Z,300.00
2019-01-02T07:40:07.831Z,320.00
2019-01-02T07:41:07.819Z,328.00
2019-01-02T07:42:07.809Z,328.00
2019-01-02T07:43:07.801Z,348.00
2019-01-02T07:44:07.787Z,376.00
2019-01-02T07:45:07.779Z,416.00
2019-01-02T07:46:07.764Z,440.00
2019-01-02T07:47:07.754Z,428.00
2019-01-02T07:48:07.740Z,440.00
2019-01-02T07:49:07.728Z,476.00
2019-01-02T07:50:07.720Z,500.00
2019-01-02T07:51:07.707Z,488.00
2019-01-02T07:52:07.696Z,496.00
2019-01-02T07:53:07.689Z,512.00
2019-01-02T07:54:07.673Z,540.00
2019-01-02T07:55:07.667Z,520.00
2019-01-02T07:56:07.651Z,524.00
2019-01-02T07:57:07.639Z,524.00
2019-01-02T07:58:07.630Z,552.00
2019-01-02T07:59:07.620Z,580.00
2019-01-02T08:00:07.608Z,604.00
2019-01-02T08:01:07.595Z,604.00
2019-01-02T08:02:07.589Z,612.00
2019-01-02T08:03:07.575Z,624.00
2019-01-02T08:04:07.567Z,636.00
2019-01-02T08:05:07.552Z,640.00
2019-01-02T08:06:07.542Z,620.00
2019-01-02T08:07:07.533Z,624.00
2019-01-02T08:08:07.521Z,608.00
2019-01-02T08:09:07.509Z,512.00
2019-01-02T08:10:07.494Z,496.00
2019-01-02T08:11:07.486Z,576.00
2019-01-02T08:12:07.473Z,640.00
2019-01-02T08:13:07.461Z,684.00
2019-01-02T08:14:07.450Z,656.00
2019-01-02T08:15:07.446Z,636.00
2019-01-02T08:16:07.436Z,684.00
2019-01-02T08:17:07.416Z,712.00
2019-01-02T08:18:07.404Z,764.00
2019-01-02T08:19:07.395Z,876.00
2019-01-02T08:20:07.386Z,980.00
2019-01-02T08:21:07.373Z,1048.00
2019-01-02T08:22:07.411Z,928.00
2019-01-02T08:23:07.350Z,908.00
2019-01-02T08:24:07.339Z,960.00
2019-01-02T08:25:07.330Z,1080.00
2019-01-02T08:26:07.317Z,1232.00
2019-01-02T08:27:07.308Z,1284.00
2019-01-02T08:28:07.315Z,1156.00
2019-01-02T08:29:07.284Z,1256.00
2019-01-02T08:30:07.272Z,1336.00
2019-01-02T08:31:07.274Z,1404.00
2019-01-02T08:32:07.249Z,1476.00
2019-01-02T08:33:07.237Z,1504.00
2019-01-02T08:34:07.227Z,1512.00
2019-01-02T08:35:07.217Z,1528.00
2019-01-02T08:36:07.211Z,1528.00
2019-01-02T08:37:07.197Z,1500.00
2019-01-02T08:38:07.186Z,1524.00
2019-01-02T08:39:07.178Z,1520.00
2019-01-02T08:40:07.164Z,1576.00
2019-01-02T08:41:07.156Z,1700.00
2019-01-02T08:42:07.143Z,1800.00
2019-01-02T08:43:07.128Z,1812.00
2019-01-02T08:44:07.116Z,1744.00
2019-01-02T08:45:07.105Z,1528.00
2019-01-02T08:46:07.094Z,1420.00
2019-01-02T08:47:07.086Z,1424.00
2019-01-02T08:48:07.074Z,1548.00
2019-01-02T08:49:07.063Z,1720.00
2019-01-02T08:50:07.051Z,1768.00
2019-01-02T08:51:07.043Z,1508.00
2019-01-02T08:52:07.030Z,1296.00
2019-01-02T08:53:07.015Z,1076.00
2019-01-02T08:54:07.006Z,936.00
2019-01-02T08:55:07.001Z,892.00
2019-01-02T08:56:06.985Z,776.00
2019-01-02T08:57:06.975Z,672.00
2019-01-02T08:58:06.967Z,564.00
2019-01-02T08:59:06.957Z,536.00
2019-01-02T09:00:06.942Z,476.00
2019-01-02T09:01:06.927Z,632.00
2019-01-02T09:02:06.915Z,740.00
2019-01-02T09:03:06.908Z,700.00
2019-01-02T09:04:08.291Z,612.00
2019-01-02T09:05:06.881Z,580.00
2019-01-02T09:07:06.860Z,588.00
2019-01-02T09:08:06.851Z,584.00
2019-01-02T09:09:06.841Z,512.00
2019-01-02T09:10:06.835Z,476.00
2019-01-02T09:11:06.815Z,508.00
2019-01-02T09:12:06.812Z,608.00
2019-01-02T09:13:06.794Z,724.00
2019-01-02T09:14:06.782Z,784.00
2019-01-02T09:15:06.771Z,964.00
2019-01-02T09:16:06.767Z,1340.00
2019-01-02T09:17:06.750Z,1912.00
2019-01-02T09:18:06.738Z,2256.00
2019-01-02T09:19:06.728Z,2772.00
2019-01-02T09:20:06.716Z,3224.00
2019-01-02T09:21:06.704Z,3780.00
2019-01-02T09:22:06.694Z,3684.00
2019-01-02T09:23:06.681Z,2768.00
2019-01-02T09:24:06.671Z,2032.00
2019-01-02T09:25:06.660Z,2056.00
2019-01-02T09:26:06.654Z,2412.00
2019-01-02T09:27:06.638Z,2120.00
2019-01-02T09:28:06.625Z,1800.00
2019-01-02T09:29:06.616Z,1588.00
2019-01-02T09:30:06.604Z,1528.00
2019-01-02T09:31:06.596Z,1840.00
2019-01-02T09:32:06.585Z,2104.00
2019-01-02T09:33:06.579Z,2276.00
2019-01-02T09:34:06.566Z,2124.00
2019-01-02T09:35:06.549Z,1776.00
2019-01-02T09:36:06.541Z,1568.00
2019-01-02T09:37:06.527Z,1528.00
2019-01-02T09:38:06.517Z,1592.00
2019-01-02T09:39:06.507Z,2056.00
2019-01-02T09:40:06.492Z,2688.00
2019-01-02T09:41:06.485Z,2936.00
2019-01-02T09:42:06.473Z,3164.00
2019-01-02T09:43:06.463Z,3220.00
2019-01-02T09:44:06.448Z,3260.00
2019-01-02T09:45:06.446Z,3076.00
2019-01-02T09:46:06.429Z,2896.00
2019-01-02T09:47:06.415Z,2848.00
2019-01-02T09:48:06.496Z,3060.00
2019-01-02T09:49:06.394Z,3252.00
2019-01-02T09:50:06.434Z,3292.00
2019-01-02T09:51:06.369Z,3412.00
2019-01-02T09:52:06.359Z,3776.00
2019-01-02T09:53:06.347Z,3980.00
2019-01-02T09:54:06.336Z,4076.00
2019-01-02T09:55:06.325Z,4112.00
2019-01-02T09:56:06.313Z,3880.00
2019-01-02T09:57:06.307Z,3832.00
2019-01-02T09:58:06.297Z,4136.00
2019-01-02T09:59:06.281Z,4180.00
2019-01-02T10:00:06.269Z,4028.00
2019-01-02T10:01:06.257Z,4004.00
2019-01-02T10:02:06.247Z,3808.00
2019-01-02T10:03:06.234Z,2916.00
2019-01-02T10:04:06.224Z,3092.00
2019-01-02T10:05:06.213Z,3664.00
2019-01-02T10:06:06.201Z,3544.00
2019-01-02T10:07:06.211Z,3712.00
2019-01-02T10:08:06.181Z,4416.00
2019-01-02T10:09:06.170Z,4764.00
2019-01-02T10:10:06.159Z,5080.00
2019-01-02T10:11:06.167Z,5468.00
2019-01-02T10:12:06.136Z,5740.00
2019-01-02T10:13:06.126Z,6096.00
2019-01-02T10:14:06.113Z,6292.00
2019-01-02T10:15:06.104Z,6424.00
2019-01-02T10:16:06.093Z,6448.00
2019-01-02T10:17:06.080Z,6564.00
2019-01-02T10:18:06.069Z,6972.00
2019-01-02T10:19:06.056Z,7336.00
2019-01-02T10:20:06.048Z,7424.00
2019-01-02T10:21:06.044Z,7388.00
2019-01-02T10:22:06.026Z,7424.00
2019-01-02T10:23:06.014Z,7460.00
2019-01-02T10:24:06.007Z,7452.00
2019-01-02T10:25:05.997Z,7540.00
2019-01-02T10:26:05.984Z,7616.00
2019-01-02T10:27:05.968Z,7632.00
2019-01-02T10:28:05.963Z,7704.00
2019-01-02T10:29:05.948Z,7756.00
2019-01-02T10:30:05.935Z,7760.00
2019-01-02T10:31:05.924Z,7912.00
2019-01-02T10:32:05.918Z,8176.00
2019-01-02T10:33:05.903Z,8100.00
2019-01-02T10:34:05.896Z,7724.00
2019-01-02T10:35:05.881Z,7680.00
2019-01-02T10:36:05.870Z,7508.00
2019-01-02T10:37:05.862Z,7552.00
2019-01-02T10:38:05.855Z,7732.00
2019-01-02T10:39:05.835Z,7860.00
2019-01-02T10:40:05.828Z,7864.00
2019-01-02T10:41:05.818Z,7988.00
2019-01-02T10:42:05.808Z,8416.00
2019-01-02T10:43:05.794Z,9280.00
2019-01-02T10:44:05.781Z,9696.00
2019-01-02T10:45:05.772Z,10324.00
2019-01-02T10:46:05.759Z,10128.00
2019-01-02T10:47:05.755Z,9664.00
2019-01-02T10:48:05.736Z,8896.00
2019-01-02T10:49:05.736Z,8452.00
2019-01-02T10:50:05.737Z,8048.00
2019-01-02T10:51:05.740Z,7916.00
2019-01-02T10:52:05.751Z,7708.00
2019-01-02T10:53:05.689Z,7696.00
2019-01-02T10:54:05.689Z,7904.00
2019-01-02T10:55:05.691Z,8048.00
2019-01-02T10:56:05.695Z,7936.00
2019-01-02T10:57:05.636Z,7804.00
2019-01-02T10:58:05.623Z,7596.00
2019-01-02T10:59:05.616Z,7396.00
2019-01-02T11:00:05.615Z,7112.00
2019-01-02T11:01:05.590Z,6884.00
2019-01-02T11:02:05.581Z,6504.00
2019-01-02T11:03:05.570Z,5924.00
2019-01-02T11:04:05.559Z,5388.00
2019-01-02T11:05:05.551Z,4844.00
2019-01-02T11:06:05.540Z,4528.00
2019-01-02T11:07:05.524Z,4252.00
2019-01-02T11:08:05.516Z,4496.00
2019-01-02T11:09:05.499Z,5464.00
2019-01-02T11:10:05.489Z,8156.00
2019-01-02T11:11:05.477Z,14024.00
2019-01-02T11:12:05.465Z,13668.00
2019-01-02T11:13:05.456Z,14656.00
2019-01-02T11:14:05.448Z,16600.00
2019-01-02T11:15:05.436Z,13332.00
2019-01-02T11:16:05.424Z,13248.00
2019-01-02T11:17:05.415Z,11756.00
2019-01-02T11:18:05.399Z,11052.00
2019-01-02T11:19:05.389Z,6384.00
2019-01-02T11:20:05.380Z,5216.00
2019-01-02T11:21:05.367Z,4444.00
2019-01-02T11:22:05.364Z,4748.00
2019-01-02T11:23:05.344Z,3728.00
2019-01-02T11:24:05.332Z,3424.00
2019-01-02T11:25:05.321Z,3308.00
2019-01-02T11:26:05.311Z,3152.00
2019-01-02T11:27:05.303Z,3196.00
2019-01-02T11:28:05.289Z,3708.00
2019-01-02T11:29:05.277Z,3964.00
2019-01-02T11:30:05.265Z,5512.00
2019-01-02T11:31:05.252Z,5428.00
2019-01-02T11:32:05.243Z,4440.00
2019-01-02T11:33:05.231Z,4960.00
2019-01-02T11:34:05.220Z,5288.00
2019-01-02T11:35:05.208Z,5832.00
2019-01-02T11:36:05.205Z,5992.00
2019-01-02T11:37:05.186Z,5120.00
2019-01-02T11:38:05.182Z,7376.00
2019-01-02T11:39:05.166Z,8928.00
2019-01-02T11:40:05.154Z,5608.00
2019-01-02T11:41:05.141Z,12584.00
2019-01-02T11:42:05.130Z,8856.00
2019-01-02T11:43:05.118Z,11944.00
2019-01-02T11:44:05.108Z,7256.00
2019-01-02T11:45:05.096Z,6760.00
2019-01-02T11:46:05.085Z,11656.00
2019-01-02T11:47:05.077Z,13464.00
2019-01-02T11:48:05.067Z,5504.00
2019-01-02T11:49:05.056Z,4540.00
2019-01-02T11:50:05.040Z,4552.00
2019-01-02T11:51:05.031Z,3604.00
2019-01-02T11:52:05.021Z,2972.00
2019-01-02T11:53:05.015Z,4000.00
2019-01-02T11:54:04.999Z,4976.00
2019-01-02T11:55:04.983Z,4700.00
2019-01-02T11:56:04.978Z,3900.00
2019-01-02T11:57:04.961Z,3792.00
2019-01-02T11:58:04.951Z,3844.00
2019-01-02T11:59:04.939Z,5160.00
2019-01-02T12:00:04.926Z,4144.00
2019-01-02T12:01:04.918Z,4080.00
2019-01-02T12:02:04.905Z,2844.00
2019-01-02T12:03:04.894Z,2676.00
2019-01-02T12:04:04.889Z,2676.00
2019-01-02T12:05:04.874Z,2740.00
2019-01-02T12:06:04.863Z,4760.00
2019-01-02T12:07:04.850Z,4644.00
2019-01-02T12:08:04.838Z,3692.00
2019-01-02T12:09:04.829Z,2720.00
2019-01-02T12:10:04.824Z,9920.00
2019-01-02T12:11:04.811Z,10220.00
2019-01-02T12:12:04.795Z,10436.00
2019-01-02T12:13:04.781Z,10348.00
2019-01-02T12:14:04.783Z,10120.00
2019-01-02T12:15:04.759Z,9820.00
2019-01-02T12:16:04.752Z,9532.00
2019-01-02T12:17:04.784Z,8940.00
2019-01-02T12:18:04.729Z,6820.00
2019-01-02T12:19:04.716Z,6404.00
2019-01-02T12:20:04.713Z,8556.00
2019-01-02T12:21:04.693Z,9876.00
2019-01-02T12:22:04.684Z,9412.00
2019-01-02T12:23:04.674Z,4616.00
2019-01-02T12:24:04.662Z,4060.00
2019-01-02T12:25:04.654Z,4532.00
2019-01-02T12:26:04.644Z,6276.00
2019-01-02T12:27:04.632Z,7272.00
2019-01-02T12:28:04.625Z,8396.00
2019-01-02T12:29:04.607Z,9352.00
2019-01-02T12:30:04.597Z,8068.00
2019-01-02T12:31:04.586Z,6012.00
2019-01-02T12:32:04.579Z,6580.00
2019-01-02T12:33:04.566Z,8336.00
2019-01-02T12:34:04.557Z,6532.00
2019-01-02T12:35:04.546Z,2556.00
2019-01-02T12:36:04.532Z,2540.00
2019-01-02T12:37:04.525Z,4936.00
2019-01-02T12:38:04.509Z,2336.00
2019-01-02T12:39:04.506Z,2352.00
2019-01-02T12:40:04.493Z,2700.00
2019-01-02T12:41:04.478Z,2744.00
2019-01-02T12:42:04.469Z,3020.00
2019-01-02T12:43:04.454Z,2736.00
2019-01-02T12:44:04.446Z,2704.00
2019-01-02T12:45:04.432Z,2260.00
2019-01-02T12:46:04.420Z,2536.00
2019-01-02T12:47:04.412Z,2612.00
2019-01-02T12:48:04.397Z,2784.00
2019-01-02T12:49:04.388Z,5592.00
2019-01-02T12:50:04.375Z,4748.00
2019-01-02T12:51:04.367Z,6700.00
2019-01-02T12:52:04.362Z,3236.00